sensor_id;sensor_type;location;lat;lon;timestamp;P1;durP1;ratioP1;P2;durP2;ratioP2
18194;SDS011;9223;50.988;3.162;2023-05-07T00:04:11;9.65;;;8.18;;
18194;SDS011;9223;50.988;3.162;2023-05-07T00:10:15;12.85;;;7.75;;
18194;SDS011;9223;50.988;3.162;2023-05-07T00:16:20;14.90;;;7.43;;
18194;SDS011;9223;50.988;3.162;2023-05-07T00:22:24;8.65;;;6.78;;
18194;SDS011;9223;50.988;3.162;2023-05-07T00:28:27;13.07;;;8.13;;
18194;SDS011;9223;50.988;3.162;2023-05-07T00:34:32;13.30;;;7.30;;
18194;SDS011;9223;50.988;3.162;2023-05-07T00:40:36;11.48;;;6.43;;
18194;SDS011;9223;50.988;3.162;2023-05-07T00:46:39;12.40;;;6.75;;
18194;SDS011;9223;50.988;3.162;2023-05-07T00:52:44;11.82;;;6.85;;
18194;SDS011;9223;50.988;3.162;2023-05-07T00:58:48;12.50;;;6.30;;
18194;SDS011;9223;50.988;3.162;2023-05-07T01:04:52;12.45;;;7.07;;
18194;SDS011;9223;50.988;3.162;2023-05-07T01:10:58;8.13;;;6.35;;
18194;SDS011;9223;50.988;3.162;2023-05-07T01:17:02;11.57;;;7.70;;
18194;SDS011;9223;50.988;3.162;2023-05-07T01:23:07;10.30;;;6.55;;
18194;SDS011;9223;50.988;3.162;2023-05-07T01:29:12;9.68;;;6.95;;
18194;SDS011;9223;50.988;3.162;2023-05-07T01:35:16;8.68;;;6.55;;
18194;SDS011;9223;50.988;3.162;2023-05-07T01:41:22;10.50;;;6.75;;
18194;SDS011;9223;50.988;3.162;2023-05-07T01:47:26;9.35;;;6.78;;
18194;SDS011;9223;50.988;3.162;2023-05-07T01:53:34;10.35;;;6.55;;
18194;SDS011;9223;50.988;3.162;2023-05-07T01:59:40;11.18;;;6.10;;
18194;SDS011;9223;50.988;3.162;2023-05-07T02:05:43;12.60;;;6.85;;
18194;SDS011;9223;50.988;3.162;2023-05-07T02:11:47;9.32;;;7.05;;
18194;SDS011;9223;50.988;3.162;2023-05-07T02:18:02;9.98;;;7.25;;
18194;SDS011;9223;50.988;3.162;2023-05-07T02:24:06;10.98;;;7.25;;
18194;SDS011;9223;50.988;3.162;2023-05-07T02:30:10;10.18;;;7.38;;
18194;SDS011;9223;50.988;3.162;2023-05-07T02:36:15;9.90;;;6.80;;
18194;SDS011;9223;50.988;3.162;2023-05-07T02:42:19;10.52;;;6.88;;
18194;SDS011;9223;50.988;3.162;2023-05-07T02:48:22;12.18;;;7.43;;
18194;SDS011;9223;50.988;3.162;2023-05-07T02:54:27;10.65;;;7.60;;
18194;SDS011;9223;50.988;3.162;2023-05-07T03:00:31;10.02;;;7.10;;
18194;SDS011;9223;50.988;3.162;2023-05-07T03:06:34;10.63;;;7.15;;
18194;SDS011;9223;50.988;3.162;2023-05-07T03:12:39;9.45;;;7.32;;
18194;SDS011;9223;50.988;3.162;2023-05-07T03:18:43;12.23;;;6.95;;
18194;SDS011;9223;50.988;3.162;2023-05-07T03:24:46;8.80;;;7.30;;
18194;SDS011;9223;50.988;3.162;2023-05-07T03:30:51;11.27;;;7.18;;
18194;SDS011;9223;50.988;3.162;2023-05-07T03:36:55;12.65;;;7.93;;
18194;SDS011;9223;50.988;3.162;2023-05-07T03:42:59;10.88;;;7.70;;
18194;SDS011;9223;50.988;3.162;2023-05-07T03:49:04;12.40;;;8.20;;
18194;SDS011;9223;50.988;3.162;2023-05-07T03:55:07;9.63;;;7.47;;
18194;SDS011;9223;50.988;3.162;2023-05-07T04:01:11;10.27;;;7.20;;
18194;SDS011;9223;50.988;3.162;2023-05-07T04:07:16;10.60;;;7.68;;
18194;SDS011;9223;50.988;3.162;2023-05-07T04:13:20;11.40;;;7.72;;
18194;SDS011;9223;50.988;3.162;2023-05-07T04:19:24;12.93;;;8.95;;
18194;SDS011;9223;50.988;3.162;2023-05-07T04:25:28;12.20;;;8.05;;
18194;SDS011;9223;50.988;3.162;2023-05-07T04:31:32;12.10;;;7.65;;
18194;SDS011;9223;50.988;3.162;2023-05-07T04:37:35;10.73;;;7.85;;
18194;SDS011;9223;50.988;3.162;2023-05-07T04:43:40;10.45;;;7.95;;
18194;SDS011;9223;50.988;3.162;2023-05-07T04:49:44;11.60;;;7.95;;
18194;SDS011;9223;50.988;3.162;2023-05-07T04:55:47;12.45;;;8.52;;
18194;SDS011;9223;50.988;3.162;2023-05-07T05:01:52;12.40;;;8.95;;
18194;SDS011;9223;50.988;3.162;2023-05-07T05:07:57;12.18;;;8.43;;
18194;SDS011;9223;50.988;3.162;2023-05-07T05:14:01;15.18;;;9.18;;
18194;SDS011;9223;50.988;3.162;2023-05-07T05:20:06;15.93;;;9.05;;
18194;SDS011;9223;50.988;3.162;2023-05-07T05:26:11;14.18;;;9.10;;
18194;SDS011;9223;50.988;3.162;2023-05-07T05:32:15;13.95;;;9.02;;
18194;SDS011;9223;50.988;3.162;2023-05-07T05:38:19;14.00;;;8.00;;
18194;SDS011;9223;50.988;3.162;2023-05-07T05:44:23;11.00;;;7.93;;
18194;SDS011;9223;50.988;3.162;2023-05-07T05:50:27;11.00;;;7.90;;
18194;SDS011;9223;50.988;3.162;2023-05-07T05:56:31;13.75;;;8.75;;
18194;SDS011;9223;50.988;3.162;2023-05-07T06:02:35;13.02;;;8.50;;
18194;SDS011;9223;50.988;3.162;2023-05-07T06:08:39;11.57;;;8.70;;
18194;SDS011;9223;50.988;3.162;2023-05-07T06:14:44;12.02;;;8.02;;
18194;SDS011;9223;50.988;3.162;2023-05-07T06:20:48;13.25;;;8.57;;
18194;SDS011;9223;50.988;3.162;2023-05-07T06:26:51;12.10;;;8.02;;
18194;SDS011;9223;50.988;3.162;2023-05-07T06:32:56;11.50;;;8.95;;
18194;SDS011;9223;50.988;3.162;2023-05-07T06:39:00;16.42;;;8.82;;
18194;SDS011;9223;50.988;3.162;2023-05-07T06:45:04;12.45;;;7.32;;
18194;SDS011;9223;50.988;3.162;2023-05-07T06:51:09;9.40;;;6.68;;
18194;SDS011;9223;50.988;3.162;2023-05-07T06:57:12;11.55;;;7.00;;
18194;SDS011;9223;50.988;3.162;2023-05-07T07:03:15;12.65;;;7.10;;
18194;SDS011;9223;50.988;3.162;2023-05-07T07:09:20;11.18;;;7.45;;
18194;SDS011;9223;50.988;3.162;2023-05-07T07:15:24;9.95;;;8.07;;
18194;SDS011;9223;50.988;3.162;2023-05-07T07:21:27;12.23;;;8.57;;
18194;SDS011;9223;50.988;3.162;2023-05-07T07:27:33;10.90;;;7.88;;
18194;SDS011;9223;50.988;3.162;2023-05-07T07:33:36;11.23;;;9.00;;
18194;SDS011;9223;50.988;3.162;2023-05-07T07:39:40;14.75;;;9.48;;
18194;SDS011;9223;50.988;3.162;2023-05-07T07:45:46;12.38;;;8.82;;
18194;SDS011;9223;50.988;3.162;2023-05-07T07:51:49;13.00;;;9.52;;
18194;SDS011;9223;50.988;3.162;2023-05-07T07:57:53;14.07;;;9.75;;
18194;SDS011;9223;50.988;3.162;2023-05-07T08:04:00;10.18;;;9.18;;
18194;SDS011;9223;50.988;3.162;2023-05-07T08:10:04;11.50;;;9.05;;
18194;SDS011;9223;50.988;3.162;2023-05-07T08:16:08;11.82;;;9.18;;
18194;SDS011;9223;50.988;3.162;2023-05-07T08:22:13;12.45;;;8.38;;
18194;SDS011;9223;50.988;3.162;2023-05-07T08:28:19;11.10;;;7.70;;
18194;SDS011;9223;50.988;3.162;2023-05-07T08:34:22;9.27;;;7.90;;
18194;SDS011;9223;50.988;3.162;2023-05-07T08:40:28;11.02;;;7.78;;
18194;SDS011;9223;50.988;3.162;2023-05-07T08:46:31;10.85;;;7.32;;
18194;SDS011;9223;50.988;3.162;2023-05-07T08:52:35;12.10;;;7.28;;
18194;SDS011;9223;50.988;3.162;2023-05-07T08:58:41;8.25;;;6.65;;
18194;SDS011;9223;50.988;3.162;2023-05-07T09:04:44;9.48;;;6.38;;
18194;SDS011;9223;50.988;3.162;2023-05-07T09:10:48;4.72;;;4.10;;
18194;SDS011;9223;50.988;3.162;2023-05-07T09:16:53;3.20;;;2.90;;
18194;SDS011;9223;50.988;3.162;2023-05-07T09:22:56;5.72;;;2.90;;
18194;SDS011;9223;50.988;3.162;2023-05-07T09:29:00;4.97;;;3.40;;
18194;SDS011;9223;50.988;3.162;2023-05-07T09:35:06;4.22;;;2.67;;
18194;SDS011;9223;50.988;3.162;2023-05-07T09:41:11;5.88;;;2.95;;
18194;SDS011;9223;50.988;3.162;2023-05-07T09:47:15;3.65;;;2.08;;
18194;SDS011;9223;50.988;3.162;2023-05-07T09:53:22;3.85;;;1.85;;
18194;SDS011;9223;50.988;3.162;2023-05-07T09:59:26;2.90;;;2.25;;
18194;SDS011;9223;50.988;3.162;2023-05-07T10:05:30;4.78;;;2.67;;
18194;SDS011;9223;50.988;3.162;2023-05-07T10:11:36;5.38;;;3.25;;
18194;SDS011;9223;50.988;3.162;2023-05-07T10:17:40;6.38;;;3.83;;
18194;SDS011;9223;50.988;3.162;2023-05-07T10:23:44;7.43;;;4.30;;
18194;SDS011;9223;50.988;3.162;2023-05-07T10:29:52;7.45;;;4.60;;
18194;SDS011;9223;50.988;3.162;2023-05-07T10:36:00;7.90;;;4.60;;
18194;SDS011;9223;50.988;3.162;2023-05-07T10:42:09;6.72;;;4.55;;
18194;SDS011;9223;50.988;3.162;2023-05-07T10:48:14;8.83;;;6.00;;
18194;SDS011;9223;50.988;3.162;2023-05-07T10:54:30;6.95;;;5.80;;
18194;SDS011;9223;50.988;3.162;2023-05-07T11:00:41;5.15;;;3.67;;
18194;SDS011;9223;50.988;3.162;2023-05-07T11:13:05;5.03;;;2.90;;
18194;SDS011;9223;50.988;3.162;2023-05-07T11:19:09;4.45;;;2.70;;
18194;SDS011;9223;50.988;3.162;2023-05-07T11:25:17;3.33;;;2.65;;
18194;SDS011;9223;50.988;3.162;2023-05-07T11:31:23;4.15;;;2.58;;
18194;SDS011;9223;50.988;3.162;2023-05-07T11:37:28;5.10;;;4.38;;
18194;SDS011;9223;50.988;3.162;2023-05-07T11:43:32;7.28;;;5.43;;
18194;SDS011;9223;50.988;3.162;2023-05-07T11:49:38;7.75;;;5.82;;
18194;SDS011;9223;50.988;3.162;2023-05-07T11:55:42;10.70;;;6.75;;
18194;SDS011;9223;50.988;3.162;2023-05-07T12:01:46;9.48;;;6.97;;
18194;SDS011;9223;50.988;3.162;2023-05-07T12:07:56;7.97;;;6.95;;
18194;SDS011;9223;50.988;3.162;2023-05-07T12:14:00;10.07;;;7.97;;
18194;SDS011;9223;50.988;3.162;2023-05-07T12:20:07;8.55;;;7.10;;
18194;SDS011;9223;50.988;3.162;2023-05-07T12:26:12;8.07;;;7.03;;
18194;SDS011;9223;50.988;3.162;2023-05-07T12:32:16;7.05;;;6.30;;
18194;SDS011;9223;50.988;3.162;2023-05-07T12:38:21;8.25;;;5.85;;
18194;SDS011;9223;50.988;3.162;2023-05-07T12:44:28;7.75;;;5.90;;
18194;SDS011;9223;50.988;3.162;2023-05-07T12:50:32;6.03;;;5.45;;
18194;SDS011;9223;50.988;3.162;2023-05-07T12:56:36;6.00;;;5.13;;
18194;SDS011;9223;50.988;3.162;2023-05-07T13:02:42;7.13;;;5.18;;
18194;SDS011;9223;50.988;3.162;2023-05-07T13:08:46;6.88;;;5.22;;
18194;SDS011;9223;50.988;3.162;2023-05-07T13:14:50;4.95;;;4.10;;
18194;SDS011;9223;50.988;3.162;2023-05-07T13:20:54;4.85;;;3.92;;
18194;SDS011;9223;50.988;3.162;2023-05-07T13:26:58;5.30;;;3.67;;
18194;SDS011;9223;50.988;3.162;2023-05-07T13:33:01;5.43;;;3.40;;
18194;SDS011;9223;50.988;3.162;2023-05-07T13:39:07;6.18;;;4.80;;
18194;SDS011;9223;50.988;3.162;2023-05-07T13:45:10;4.05;;;3.65;;
18194;SDS011;9223;50.988;3.162;2023-05-07T13:51:15;5.00;;;3.00;;
18194;SDS011;9223;50.988;3.162;2023-05-07T13:57:20;2.95;;;2.40;;
18194;SDS011;9223;50.988;3.162;2023-05-07T14:03:24;2.63;;;1.80;;
18194;SDS011;9223;50.988;3.162;2023-05-07T14:09:28;2.75;;;2.00;;
18194;SDS011;9223;50.988;3.162;2023-05-07T14:15:33;1.98;;;1.70;;
18194;SDS011;9223;50.988;3.162;2023-05-07T14:21:36;3.03;;;1.90;;
18194;SDS011;9223;50.988;3.162;2023-05-07T14:27:40;3.70;;;2.00;;
18194;SDS011;9223;50.988;3.162;2023-05-07T14:33:45;2.63;;;2.00;;
18194;SDS011;9223;50.988;3.162;2023-05-07T14:39:48;2.10;;;1.90;;
18194;SDS011;9223;50.988;3.162;2023-05-07T14:45:52;2.17;;;1.95;;
18194;SDS011;9223;50.988;3.162;2023-05-07T14:51:58;3.83;;;1.80;;
18194;SDS011;9223;50.988;3.162;2023-05-07T14:58:02;2.63;;;1.77;;
18194;SDS011;9223;50.988;3.162;2023-05-07T15:04:05;5.50;;;2.13;;
18194;SDS011;9223;50.988;3.162;2023-05-07T15:10:10;4.50;;;2.72;;
18194;SDS011;9223;50.988;3.162;2023-05-07T15:16:14;3.45;;;2.47;;
18194;SDS011;9223;50.988;3.162;2023-05-07T15:22:18;3.13;;;2.00;;
18194;SDS011;9223;50.988;3.162;2023-05-07T15:28:24;4.22;;;2.20;;
18194;SDS011;9223;50.988;3.162;2023-05-07T15:34:28;4.45;;;2.30;;
18194;SDS011;9223;50.988;3.162;2023-05-07T15:40:32;4.38;;;2.95;;
18194;SDS011;9223;50.988;3.162;2023-05-07T15:46:38;3.55;;;2.55;;
18194;SDS011;9223;50.988;3.162;2023-05-07T15:52:41;4.22;;;2.70;;
18194;SDS011;9223;50.988;3.162;2023-05-07T15:58:47;3.67;;;3.38;;
18194;SDS011;9223;50.988;3.162;2023-05-07T16:04:52;4.97;;;3.63;;
18194;SDS011;9223;50.988;3.162;2023-05-07T16:10:56;6.45;;;4.32;;
18194;SDS011;9223;50.988;3.162;2023-05-07T16:17:00;5.05;;;4.30;;
18194;SDS011;9223;50.988;3.162;2023-05-07T16:23:04;9.90;;;7.00;;
18194;SDS011;9223;50.988;3.162;2023-05-07T16:29:08;10.30;;;7.90;;
18194;SDS011;9223;50.988;3.162;2023-05-07T16:35:11;9.75;;;8.57;;
18194;SDS011;9223;50.988;3.162;2023-05-07T16:41:17;13.52;;;10.20;;
18194;SDS011;9223;50.988;3.162;2023-05-07T16:47:21;12.52;;;11.02;;
18194;SDS011;9223;50.988;3.162;2023-05-07T16:53:24;12.63;;;10.93;;
18194;SDS011;9223;50.988;3.162;2023-05-07T16:59:29;13.82;;;11.80;;
18194;SDS011;9223;50.988;3.162;2023-05-07T17:05:33;15.95;;;11.88;;
18194;SDS011;9223;50.988;3.162;2023-05-07T17:11:37;14.82;;;12.57;;
18194;SDS011;9223;50.988;3.162;2023-05-07T17:17:42;16.00;;;11.60;;
18194;SDS011;9223;50.988;3.162;2023-05-07T17:23:45;14.55;;;12.25;;
18194;SDS011;9223;50.988;3.162;2023-05-07T17:29:49;12.95;;;11.52;;
18194;SDS011;9223;50.988;3.162;2023-05-07T17:35:54;15.65;;;13.30;;
18194;SDS011;9223;50.988;3.162;2023-05-07T17:41:57;17.90;;;13.23;;
18194;SDS011;9223;50.988;3.162;2023-05-07T17:48:01;14.07;;;11.80;;
18194;SDS011;9223;50.988;3.162;2023-05-07T17:54:06;16.73;;;12.63;;
18194;SDS011;9223;50.988;3.162;2023-05-07T18:00:10;16.08;;;13.20;;
18194;SDS011;9223;50.988;3.162;2023-05-07T18:06:14;21.58;;;15.35;;
18194;SDS011;9223;50.988;3.162;2023-05-07T18:12:21;17.42;;;13.07;;
18194;SDS011;9223;50.988;3.162;2023-05-07T18:18:28;17.58;;;12.23;;
18194;SDS011;9223;50.988;3.162;2023-05-07T18:24:32;15.13;;;12.10;;
18194;SDS011;9223;50.988;3.162;2023-05-07T18:30:37;20.33;;;13.25;;
18194;SDS011;9223;50.988;3.162;2023-05-07T18:36:41;15.40;;;11.93;;
18194;SDS011;9223;50.988;3.162;2023-05-07T18:42:44;17.70;;;12.23;;
18194;SDS011;9223;50.988;3.162;2023-05-07T18:48:49;15.15;;;12.30;;
18194;SDS011;9223;50.988;3.162;2023-05-07T18:54:53;18.10;;;12.02;;
18194;SDS011;9223;50.988;3.162;2023-05-07T19:00:56;15.50;;;12.85;;
18194;SDS011;9223;50.988;3.162;2023-05-07T19:07:01;18.60;;;13.77;;
18194;SDS011;9223;50.988;3.162;2023-05-07T19:13:05;16.65;;;12.77;;
18194;SDS011;9223;50.988;3.162;2023-05-07T19:19:08;19.52;;;13.50;;
18194;SDS011;9223;50.988;3.162;2023-05-07T19:25:13;21.48;;;15.38;;
18194;SDS011;9223;50.988;3.162;2023-05-07T19:31:18;19.75;;;14.30;;
18194;SDS011;9223;50.988;3.162;2023-05-07T19:37:22;19.67;;;14.13;;
18194;SDS011;9223;50.988;3.162;2023-05-07T19:43:30;17.02;;;13.90;;
18194;SDS011;9223;50.988;3.162;2023-05-07T19:49:36;17.90;;;13.25;;
18194;SDS011;9223;50.988;3.162;2023-05-07T19:55:40;16.95;;;13.40;;
18194;SDS011;9223;50.988;3.162;2023-05-07T20:01:45;17.05;;;14.05;;
18194;SDS011;9223;50.988;3.162;2023-05-07T20:07:48;19.02;;;14.75;;
18194;SDS011;9223;50.988;3.162;2023-05-07T20:13:52;19.45;;;14.80;;
18194;SDS011;9223;50.988;3.162;2023-05-07T20:19:57;19.05;;;15.27;;
18194;SDS011;9223;50.988;3.162;2023-05-07T20:26:01;20.63;;;15.10;;
18194;SDS011;9223;50.988;3.162;2023-05-07T20:32:04;20.25;;;16.73;;
18194;SDS011;9223;50.988;3.162;2023-05-07T20:38:09;20.20;;;15.35;;
18194;SDS011;9223;50.988;3.162;2023-05-07T20:44:13;22.15;;;16.42;;
18194;SDS011;9223;50.988;3.162;2023-05-07T20:50:17;18.98;;;14.27;;
18194;SDS011;9223;50.988;3.162;2023-05-07T20:56:22;21.20;;;13.60;;
18194;SDS011;9223;50.988;3.162;2023-05-07T21:02:26;20.52;;;15.07;;
18194;SDS011;9223;50.988;3.162;2023-05-07T21:08:30;23.25;;;15.95;;
18194;SDS011;9223;50.988;3.162;2023-05-07T21:14:35;24.35;;;16.58;;
18194;SDS011;9223;50.988;3.162;2023-05-07T21:20:39;25.77;;;16.90;;
18194;SDS011;9223;50.988;3.162;2023-05-07T21:26:43;26.70;;;16.48;;
18194;SDS011;9223;50.988;3.162;2023-05-07T21:32:48;26.00;;;17.23;;
18194;SDS011;9223;50.988;3.162;2023-05-07T21:38:53;25.10;;;17.58;;
18194;SDS011;9223;50.988;3.162;2023-05-07T21:44:57;26.77;;;17.50;;
18194;SDS011;9223;50.988;3.162;2023-05-07T21:51:02;24.15;;;17.50;;
18194;SDS011;9223;50.988;3.162;2023-05-07T21:57:06;30.15;;;18.55;;
18194;SDS011;9223;50.988;3.162;2023-05-07T22:03:09;26.92;;;18.38;;
18194;SDS011;9223;50.988;3.162;2023-05-07T22:09:14;26.10;;;17.52;;
18194;SDS011;9223;50.988;3.162;2023-05-07T22:15:18;27.13;;;18.67;;
18194;SDS011;9223;50.988;3.162;2023-05-07T22:21:22;26.67;;;18.38;;
18194;SDS011;9223;50.988;3.162;2023-05-07T22:27:26;23.92;;;17.42;;
18194;SDS011;9223;50.988;3.162;2023-05-07T22:33:31;23.98;;;16.85;;
18194;SDS011;9223;50.988;3.162;2023-05-07T22:39:35;25.55;;;18.30;;
18194;SDS011;9223;50.988;3.162;2023-05-07T22:45:40;25.95;;;17.92;;
18194;SDS011;9223;50.988;3.162;2023-05-07T22:51:43;26.38;;;17.75;;
18194;SDS011;9223;50.988;3.162;2023-05-07T22:57:47;24.23;;;16.30;;
18194;SDS011;9223;50.988;3.162;2023-05-07T23:03:52;22.20;;;15.20;;
18194;SDS011;9223;50.988;3.162;2023-05-07T23:09:56;22.02;;;14.57;;
18194;SDS011;9223;50.988;3.162;2023-05-07T23:15:59;19.75;;;13.95;;
18194;SDS011;9223;50.988;3.162;2023-05-07T23:22:04;22.65;;;14.00;;
18194;SDS011;9223;50.988;3.162;2023-05-07T23:28:07;24.90;;;14.93;;
18194;SDS011;9223;50.988;3.162;2023-05-07T23:34:11;27.00;;;14.68;;
18194;SDS011;9223;50.988;3.162;2023-05-07T23:40:17;28.08;;;15.68;;
18194;SDS011;9223;50.988;3.162;2023-05-07T23:46:20;26.83;;;15.05;;
18194;SDS011;9223;50.988;3.162;2023-05-07T23:52:25;25.63;;;14.85;;
18194;SDS011;9223;50.988;3.162;2023-05-07T23:58:29;26.27;;;14.73;;
